sensor_id;sensor_type;location;lat;lon;timestamp;temperature;humidity
32614;DHT22;19031;51.400;6.770;2023-06-04T00:00:36;13.80;97.70
32614;DHT22;19031;51.400;6.770;2023-06-04T00:03:01;13.70;98.40
32614;DHT22;19031;51.400;6.770;2023-06-04T00:05:27;13.80;98.30
32614;DHT22;19031;51.400;6.770;2023-06-04T00:07:53;13.80;98.50
32614;DHT22;19031;51.400;6.770;2023-06-04T00:10:18;13.70;98.60
32614;DHT22;19031;51.400;6.770;2023-06-04T00:12:44;13.80;98.20
32614;DHT22;19031;51.400;6.770;2023-06-04T00:15:10;13.70;98.30
32614;DHT22;19031;51.400;6.770;2023-06-04T00:17:35;13.60;98.30
32614;DHT22;19031;51.400;6.770;2023-06-04T00:20:02;13.70;98.80
32614;DHT22;19031;51.400;6.770;2023-06-04T00:22:27;13.60;98.70
32614;DHT22;19031;51.400;6.770;2023-06-04T00:24:53;13.60;98.50
32614;DHT22;19031;51.400;6.770;2023-06-04T00:27:18;13.60;98.60
32614;DHT22;19031;51.400;6.770;2023-06-04T00:29:44;13.60;98.60
32614;DHT22;19031;51.400;6.770;2023-06-04T00:32:09;13.60;98.90
32614;DHT22;19031;51.400;6.770;2023-06-04T00:34:35;13.50;99.50
32614;DHT22;19031;51.400;6.770;2023-06-04T00:37:00;13.50;99.80
32614;DHT22;19031;51.400;6.770;2023-06-04T00:39:29;13.40;99.90
32614;DHT22;19031;51.400;6.770;2023-06-04T00:41:55;13.40;99.90
32614;DHT22;19031;51.400;6.770;2023-06-04T00:44:21;13.30;99.90
32614;DHT22;19031;51.400;6.770;2023-06-04T00:46:48;13.30;99.90
32614;DHT22;19031;51.400;6.770;2023-06-04T00:49:14;13.30;99.90
32614;DHT22;19031;51.400;6.770;2023-06-04T00:51:40;13.30;99.90
32614;DHT22;19031;51.400;6.770;2023-06-04T00:54:07;13.10;99.90
32614;DHT22;19031;51.400;6.770;2023-06-04T00:56:35;13.20;99.90
32614;DHT22;19031;51.400;6.770;2023-06-04T00:59:03;13.10;99.90
32614;DHT22;19031;51.400;6.770;2023-06-04T01:04:02;13.10;99.90
32614;DHT22;19031;51.400;6.770;2023-06-04T01:06:39;13.10;99.90
32614;DHT22;19031;51.400;6.770;2023-06-04T01:09:05;12.90;99.90
32614;DHT22;19031;51.400;6.770;2023-06-04T01:11:35;13.00;99.90
32614;DHT22;19031;51.400;6.770;2023-06-04T01:14:02;13.00;99.90
32614;DHT22;19031;51.400;6.770;2023-06-04T01:16:32;12.90;99.90
32614;DHT22;19031;51.400;6.770;2023-06-04T01:19:02;12.90;99.90
32614;DHT22;19031;51.400;6.770;2023-06-04T01:21:30;12.90;99.90
32614;DHT22;19031;51.400;6.770;2023-06-04T01:24:00;13.00;99.90
32614;DHT22;19031;51.400;6.770;2023-06-04T01:26:29;12.90;99.90
32614;DHT22;19031;51.400;6.770;2023-06-04T01:28:55;13.00;99.90
32614;DHT22;19031;51.400;6.770;2023-06-04T01:31:21;12.90;99.90
32614;DHT22;19031;51.400;6.770;2023-06-04T01:33:54;12.80;99.90
32614;DHT22;19031;51.400;6.770;2023-06-04T01:36:21;12.80;99.90
32614;DHT22;19031;51.400;6.770;2023-06-04T01:38:46;12.80;99.90
32614;DHT22;19031;51.400;6.770;2023-06-04T01:41:12;12.70;99.90
32614;DHT22;19031;51.400;6.770;2023-06-04T01:43:37;12.70;99.90
32614;DHT22;19031;51.400;6.770;2023-06-04T01:46:03;12.70;99.90
32614;DHT22;19031;51.400;6.770;2023-06-04T01:48:29;12.70;99.90
32614;DHT22;19031;51.400;6.770;2023-06-04T01:50:55;12.60;99.90
32614;DHT22;19031;51.400;6.770;2023-06-04T01:53:21;12.70;99.90
32614;DHT22;19031;51.400;6.770;2023-06-04T01:55:47;12.60;99.90
32614;DHT22;19031;51.400;6.770;2023-06-04T01:58:15;12.60;99.90
32614;DHT22;19031;51.400;6.770;2023-06-04T02:00:43;12.60;99.90
32614;DHT22;19031;51.400;6.770;2023-06-04T02:03:09;12.60;99.90
32614;DHT22;19031;51.400;6.770;2023-06-04T02:05:36;12.60;99.90
32614;DHT22;19031;51.400;6.770;2023-06-04T02:08:02;12.60;99.90
32614;DHT22;19031;51.400;6.770;2023-06-04T02:10:30;12.50;99.90
32614;DHT22;19031;51.400;6.770;2023-06-04T02:13:00;12.50;99.90
32614;DHT22;19031;51.400;6.770;2023-06-04T02:15:30;12.40;99.90
32614;DHT22;19031;51.400;6.770;2023-06-04T02:20:41;12.40;99.90
32614;DHT22;19031;51.400;6.770;2023-06-04T02:23:06;12.40;99.90
32614;DHT22;19031;51.400;6.770;2023-06-04T02:25:32;12.30;99.90
32614;DHT22;19031;51.400;6.770;2023-06-04T02:27:58;12.20;99.90
32614;DHT22;19031;51.400;6.770;2023-06-04T02:30:23;12.20;99.90
32614;DHT22;19031;51.400;6.770;2023-06-04T02:32:49;12.20;99.90
32614;DHT22;19031;51.400;6.770;2023-06-04T02:35:16;12.20;99.90
32614;DHT22;19031;51.400;6.770;2023-06-04T02:37:43;12.20;99.90
32614;DHT22;19031;51.400;6.770;2023-06-04T02:40:09;12.20;99.90
32614;DHT22;19031;51.400;6.770;2023-06-04T02:42:35;12.10;99.90
32614;DHT22;19031;51.400;6.770;2023-06-04T02:45:01;12.10;99.90
32614;DHT22;19031;51.400;6.770;2023-06-04T02:47:27;12.10;99.90
32614;DHT22;19031;51.400;6.770;2023-06-04T02:49:53;12.10;99.90
32614;DHT22;19031;51.400;6.770;2023-06-04T02:52:18;12.20;99.90
32614;DHT22;19031;51.400;6.770;2023-06-04T02:54:44;12.00;99.90
32614;DHT22;19031;51.400;6.770;2023-06-04T02:57:09;12.10;99.90
32614;DHT22;19031;51.400;6.770;2023-06-04T02:59:35;12.00;99.90
32614;DHT22;19031;51.400;6.770;2023-06-04T03:02:02;12.10;99.90
32614;DHT22;19031;51.400;6.770;2023-06-04T03:04:27;12.00;99.90
32614;DHT22;19031;51.400;6.770;2023-06-04T03:06:59;12.10;99.90
32614;DHT22;19031;51.400;6.770;2023-06-04T03:09:26;12.00;99.90
32614;DHT22;19031;51.400;6.770;2023-06-04T03:11:51;11.90;99.90
32614;DHT22;19031;51.400;6.770;2023-06-04T03:14:17;11.90;99.90
32614;DHT22;19031;51.400;6.770;2023-06-04T03:16:43;11.90;99.90
32614;DHT22;19031;51.400;6.770;2023-06-04T03:19:10;12.00;99.90
32614;DHT22;19031;51.400;6.770;2023-06-04T03:21:37;11.90;99.90
32614;DHT22;19031;51.400;6.770;2023-06-04T03:24:06;12.00;99.90
32614;DHT22;19031;51.400;6.770;2023-06-04T03:26:32;11.80;99.90
32614;DHT22;19031;51.400;6.770;2023-06-04T03:28:57;11.80;99.90
32614;DHT22;19031;51.400;6.770;2023-06-04T03:31:23;11.90;99.90
32614;DHT22;19031;51.400;6.770;2023-06-04T03:33:49;11.80;99.90
32614;DHT22;19031;51.400;6.770;2023-06-04T03:36:15;11.80;99.90
32614;DHT22;19031;51.400;6.770;2023-06-04T03:38:41;11.80;99.90
32614;DHT22;19031;51.400;6.770;2023-06-04T03:41:07;11.80;99.90
32614;DHT22;19031;51.400;6.770;2023-06-04T03:43:32;11.80;99.90
32614;DHT22;19031;51.400;6.770;2023-06-04T03:45:58;11.80;99.90
32614;DHT22;19031;51.400;6.770;2023-06-04T03:48:23;11.80;99.90
32614;DHT22;19031;51.400;6.770;2023-06-04T03:50:49;11.80;99.90
32614;DHT22;19031;51.400;6.770;2023-06-04T03:53:14;11.80;99.90
32614;DHT22;19031;51.400;6.770;2023-06-04T03:55:40;11.70;99.90
32614;DHT22;19031;51.400;6.770;2023-06-04T03:58:06;11.70;99.90
32614;DHT22;19031;51.400;6.770;2023-06-04T04:00:34;11.60;99.90
32614;DHT22;19031;51.400;6.770;2023-06-04T04:03:00;11.70;99.90
32614;DHT22;19031;51.400;6.770;2023-06-04T04:05:25;11.70;99.90
32614;DHT22;19031;51.400;6.770;2023-06-04T04:07:51;11.80;99.90
32614;DHT22;19031;51.400;6.770;2023-06-04T04:10:16;11.80;99.90
32614;DHT22;19031;51.400;6.770;2023-06-04T04:12:42;11.80;99.90
32614;DHT22;19031;51.400;6.770;2023-06-04T04:15:08;11.80;99.90
32614;DHT22;19031;51.400;6.770;2023-06-04T04:17:34;11.90;99.90
32614;DHT22;19031;51.400;6.770;2023-06-04T04:19:59;11.90;99.90
32614;DHT22;19031;51.400;6.770;2023-06-04T04:22:25;11.90;99.90
32614;DHT22;19031;51.400;6.770;2023-06-04T04:24:50;12.00;99.90
32614;DHT22;19031;51.400;6.770;2023-06-04T04:27:16;12.00;99.90
32614;DHT22;19031;51.400;6.770;2023-06-04T04:29:41;12.10;99.90
32614;DHT22;19031;51.400;6.770;2023-06-04T04:32:08;12.10;99.90
32614;DHT22;19031;51.400;6.770;2023-06-04T04:34:38;12.10;99.90
32614;DHT22;19031;51.400;6.770;2023-06-04T04:37:08;12.20;99.90
32614;DHT22;19031;51.400;6.770;2023-06-04T04:39:35;12.30;99.90
32614;DHT22;19031;51.400;6.770;2023-06-04T04:42:02;12.30;99.90
32614;DHT22;19031;51.400;6.770;2023-06-04T04:44:28;12.40;99.90
32614;DHT22;19031;51.400;6.770;2023-06-04T04:46:54;12.50;99.90
32614;DHT22;19031;51.400;6.770;2023-06-04T04:49:19;12.60;99.90
32614;DHT22;19031;51.400;6.770;2023-06-04T04:51:45;12.70;99.90
32614;DHT22;19031;51.400;6.770;2023-06-04T04:54:10;12.90;99.90
32614;DHT22;19031;51.400;6.770;2023-06-04T04:56:36;12.90;99.90
32614;DHT22;19031;51.400;6.770;2023-06-04T04:59:02;13.10;99.90
32614;DHT22;19031;51.400;6.770;2023-06-04T05:01:27;13.10;99.90
32614;DHT22;19031;51.400;6.770;2023-06-04T05:03:53;13.20;99.90
32614;DHT22;19031;51.400;6.770;2023-06-04T05:06:18;13.30;99.90
32614;DHT22;19031;51.400;6.770;2023-06-04T05:08:45;13.40;99.90
32614;DHT22;19031;51.400;6.770;2023-06-04T05:11:10;13.60;99.90
32614;DHT22;19031;51.400;6.770;2023-06-04T05:13:36;13.70;99.90
32614;DHT22;19031;51.400;6.770;2023-06-04T05:16:02;13.80;99.90
32614;DHT22;19031;51.400;6.770;2023-06-04T05:18:32;13.80;99.90
32614;DHT22;19031;51.400;6.770;2023-06-04T05:20:59;13.90;99.90
32614;DHT22;19031;51.400;6.770;2023-06-04T05:23:29;14.00;99.90
32614;DHT22;19031;51.400;6.770;2023-06-04T05:25:59;14.10;99.90
32614;DHT22;19031;51.400;6.770;2023-06-04T05:28:26;14.10;99.90
32614;DHT22;19031;51.400;6.770;2023-06-04T05:30:52;14.20;99.90
32614;DHT22;19031;51.400;6.770;2023-06-04T05:33:24;14.30;99.90
32614;DHT22;19031;51.400;6.770;2023-06-04T05:35:50;14.30;99.90
32614;DHT22;19031;51.400;6.770;2023-06-04T05:38:17;14.30;99.90
32614;DHT22;19031;51.400;6.770;2023-06-04T05:40:44;14.20;99.90
32614;DHT22;19031;51.400;6.770;2023-06-04T05:43:11;14.20;99.90
32614;DHT22;19031;51.400;6.770;2023-06-04T05:45:36;14.20;99.90
32614;DHT22;19031;51.400;6.770;2023-06-04T05:48:03;14.20;99.90
32614;DHT22;19031;51.400;6.770;2023-06-04T05:50:29;14.30;99.90
32614;DHT22;19031;51.400;6.770;2023-06-04T05:52:55;14.30;99.90
32614;DHT22;19031;51.400;6.770;2023-06-04T05:55:22;14.30;99.90
32614;DHT22;19031;51.400;6.770;2023-06-04T05:57:48;14.30;99.90
32614;DHT22;19031;51.400;6.770;2023-06-04T06:00:13;14.30;99.90
32614;DHT22;19031;51.400;6.770;2023-06-04T06:02:39;14.50;99.90
32614;DHT22;19031;51.400;6.770;2023-06-04T06:05:05;14.60;99.90
32614;DHT22;19031;51.400;6.770;2023-06-04T06:07:33;14.60;99.90
32614;DHT22;19031;51.400;6.770;2023-06-04T06:09:59;14.80;99.90
32614;DHT22;19031;51.400;6.770;2023-06-04T06:12:25;15.00;99.90
32614;DHT22;19031;51.400;6.770;2023-06-04T06:14:50;14.90;99.90
32614;DHT22;19031;51.400;6.770;2023-06-04T06:17:16;15.10;99.90
32614;DHT22;19031;51.400;6.770;2023-06-04T06:19:42;15.30;99.90
32614;DHT22;19031;51.400;6.770;2023-06-04T06:22:07;15.20;99.90
32614;DHT22;19031;51.400;6.770;2023-06-04T06:24:33;15.40;99.90
32614;DHT22;19031;51.400;6.770;2023-06-04T06:26:58;15.50;99.90
32614;DHT22;19031;51.400;6.770;2023-06-04T06:29:24;15.70;99.90
32614;DHT22;19031;51.400;6.770;2023-06-04T06:31:50;15.70;99.90
32614;DHT22;19031;51.400;6.770;2023-06-04T06:34:16;15.90;99.90
32614;DHT22;19031;51.400;6.770;2023-06-04T06:36:41;16.00;99.90
32614;DHT22;19031;51.400;6.770;2023-06-04T06:39:08;16.20;99.90
32614;DHT22;19031;51.400;6.770;2023-06-04T06:41:34;16.30;99.90
32614;DHT22;19031;51.400;6.770;2023-06-04T06:44:00;16.40;99.90
32614;DHT22;19031;51.400;6.770;2023-06-04T06:46:25;16.70;99.90
32614;DHT22;19031;51.400;6.770;2023-06-04T06:48:51;16.90;99.90
32614;DHT22;19031;51.400;6.770;2023-06-04T06:51:17;17.20;99.90
32614;DHT22;19031;51.400;6.770;2023-06-04T06:53:43;17.60;99.90
32614;DHT22;19031;51.400;6.770;2023-06-04T06:56:08;17.90;98.10
32614;DHT22;19031;51.400;6.770;2023-06-04T06:58:34;18.20;98.30
32614;DHT22;19031;51.400;6.770;2023-06-04T07:01:00;18.20;97.90
32614;DHT22;19031;51.400;6.770;2023-06-04T07:03:26;18.40;96.60
32614;DHT22;19031;51.400;6.770;2023-06-04T07:05:52;18.60;97.80
32614;DHT22;19031;51.400;6.770;2023-06-04T07:08:17;18.80;97.00
32614;DHT22;19031;51.400;6.770;2023-06-04T07:10:43;19.20;96.60
32614;DHT22;19031;51.400;6.770;2023-06-04T07:13:09;19.40;96.10
32614;DHT22;19031;51.400;6.770;2023-06-04T07:15:34;19.80;95.60
32614;DHT22;19031;51.400;6.770;2023-06-04T07:18:00;20.30;95.40
32614;DHT22;19031;51.400;6.770;2023-06-04T07:20:26;20.30;92.20
32614;DHT22;19031;51.400;6.770;2023-06-04T07:22:51;20.30;92.20
32614;DHT22;19031;51.400;6.770;2023-06-04T07:25:17;20.60;91.00
32614;DHT22;19031;51.400;6.770;2023-06-04T07:27:42;21.00;91.90
32614;DHT22;19031;51.400;6.770;2023-06-04T07:30:09;21.30;90.10
32614;DHT22;19031;51.400;6.770;2023-06-04T07:32:35;21.40;88.40
32614;DHT22;19031;51.400;6.770;2023-06-04T07:35:02;21.70;88.70
32614;DHT22;19031;51.400;6.770;2023-06-04T07:37:28;21.50;85.30
32614;DHT22;19031;51.400;6.770;2023-06-04T07:39:53;21.90;86.20
32614;DHT22;19031;51.400;6.770;2023-06-04T07:42:19;22.00;82.70
32614;DHT22;19031;51.400;6.770;2023-06-04T07:44:45;22.40;83.40
32614;DHT22;19031;51.400;6.770;2023-06-04T07:47:10;22.80;81.50
32614;DHT22;19031;51.400;6.770;2023-06-04T07:49:36;22.90;76.70
32614;DHT22;19031;51.400;6.770;2023-06-04T07:52:01;22.70;73.80
32614;DHT22;19031;51.400;6.770;2023-06-04T07:54:27;23.10;74.80
32614;DHT22;19031;51.400;6.770;2023-06-04T07:56:53;23.10;72.10
32614;DHT22;19031;51.400;6.770;2023-06-04T07:59:22;23.40;73.50
32614;DHT22;19031;51.400;6.770;2023-06-04T08:01:49;23.40;68.10
32614;DHT22;19031;51.400;6.770;2023-06-04T08:04:15;23.50;68.60
32614;DHT22;19031;51.400;6.770;2023-06-04T08:06:41;23.40;64.90
32614;DHT22;19031;51.400;6.770;2023-06-04T08:09:07;23.60;66.20
32614;DHT22;19031;51.400;6.770;2023-06-04T08:11:35;23.60;64.90
32614;DHT22;19031;51.400;6.770;2023-06-04T08:14:01;24.10;67.20
32614;DHT22;19031;51.400;6.770;2023-06-04T08:16:26;24.60;64.90
32614;DHT22;19031;51.400;6.770;2023-06-04T08:18:52;24.80;62.20
32614;DHT22;19031;51.400;6.770;2023-06-04T08:21:26;25.00;63.50
32614;DHT22;19031;51.400;6.770;2023-06-04T08:23:52;24.70;62.60
32614;DHT22;19031;51.400;6.770;2023-06-04T08:26:18;24.60;62.40
32614;DHT22;19031;51.400;6.770;2023-06-04T08:28:47;24.90;61.00
32614;DHT22;19031;51.400;6.770;2023-06-04T08:31:14;25.40;60.00
32614;DHT22;19031;51.400;6.770;2023-06-04T08:33:40;25.50;59.00
32614;DHT22;19031;51.400;6.770;2023-06-04T08:36:06;25.70;56.70
32614;DHT22;19031;51.400;6.770;2023-06-04T08:38:32;25.70;56.50
32614;DHT22;19031;51.400;6.770;2023-06-04T08:41:03;26.10;58.00
32614;DHT22;19031;51.400;6.770;2023-06-04T08:43:31;26.30;54.00
32614;DHT22;19031;51.400;6.770;2023-06-04T08:45:59;26.30;53.70
32614;DHT22;19031;51.400;6.770;2023-06-04T08:48:28;25.50;54.50
32614;DHT22;19031;51.400;6.770;2023-06-04T08:50:56;26.00;54.90
32614;DHT22;19031;51.400;6.770;2023-06-04T08:53:22;26.40;54.90
32614;DHT22;19031;51.400;6.770;2023-06-04T08:55:50;26.60;50.80
32614;DHT22;19031;51.400;6.770;2023-06-04T08:58:19;26.60;50.00
32614;DHT22;19031;51.400;6.770;2023-06-04T09:00:45;27.30;52.80
32614;DHT22;19031;51.400;6.770;2023-06-04T09:03:12;27.40;49.00
32614;DHT22;19031;51.400;6.770;2023-06-04T09:05:40;27.30;50.00
32614;DHT22;19031;51.400;6.770;2023-06-04T09:08:13;27.40;49.70
32614;DHT22;19031;51.400;6.770;2023-06-04T09:10:40;27.40;48.20
32614;DHT22;19031;51.400;6.770;2023-06-04T09:13:07;27.70;49.60
32614;DHT22;19031;51.400;6.770;2023-06-04T09:15:33;27.90;48.80
32614;DHT22;19031;51.400;6.770;2023-06-04T09:17:59;27.80;47.50
32614;DHT22;19031;51.400;6.770;2023-06-04T09:20:25;27.80;47.90
32614;DHT22;19031;51.400;6.770;2023-06-04T09:22:51;27.50;45.50
32614;DHT22;19031;51.400;6.770;2023-06-04T09:25:27;27.10;48.50
32614;DHT22;19031;51.400;6.770;2023-06-04T09:27:54;27.90;48.40
32614;DHT22;19031;51.400;6.770;2023-06-04T09:30:23;27.70;45.10
32614;DHT22;19031;51.400;6.770;2023-06-04T09:32:48;27.30;44.10
32614;DHT22;19031;51.400;6.770;2023-06-04T09:35:16;27.00;43.20
32614;DHT22;19031;51.400;6.770;2023-06-04T09:37:43;27.40;44.40
32614;DHT22;19031;51.400;6.770;2023-06-04T09:40:16;27.70;44.00
32614;DHT22;19031;51.400;6.770;2023-06-04T09:42:46;27.90;44.50
32614;DHT22;19031;51.400;6.770;2023-06-04T09:45:30;28.30;42.60
32614;DHT22;19031;51.400;6.770;2023-06-04T09:47:56;28.50;42.10
32614;DHT22;19031;51.400;6.770;2023-06-04T09:50:32;28.60;41.60
32614;DHT22;19031;51.400;6.770;2023-06-04T09:53:20;28.70;42.00
32614;DHT22;19031;51.400;6.770;2023-06-04T09:55:57;28.90;42.50
32614;DHT22;19031;51.400;6.770;2023-06-04T09:58:26;28.70;42.50
32614;DHT22;19031;51.400;6.770;2023-06-04T10:00:53;28.90;44.60
32614;DHT22;19031;51.400;6.770;2023-06-04T10:03:26;29.50;42.90
32614;DHT22;19031;51.400;6.770;2023-06-04T10:05:57;29.60;41.10
32614;DHT22;19031;51.400;6.770;2023-06-04T10:08:23;29.60;41.10
32614;DHT22;19031;51.400;6.770;2023-06-04T10:10:55;29.50;40.50
32614;DHT22;19031;51.400;6.770;2023-06-04T10:13:23;28.80;41.30
32614;DHT22;19031;51.400;6.770;2023-06-04T10:15:49;28.50;40.20
32614;DHT22;19031;51.400;6.770;2023-06-04T10:18:16;28.80;41.60
32614;DHT22;19031;51.400;6.770;2023-06-04T10:20:42;28.50;40.20
32614;DHT22;19031;51.400;6.770;2023-06-04T10:23:07;28.50;41.20
32614;DHT22;19031;51.400;6.770;2023-06-04T10:25:36;28.10;41.60
32614;DHT22;19031;51.400;6.770;2023-06-04T10:28:02;28.60;43.70
32614;DHT22;19031;51.400;6.770;2023-06-04T10:30:29;28.80;40.80
32614;DHT22;19031;51.400;6.770;2023-06-04T10:32:57;28.60;40.00
32614;DHT22;19031;51.400;6.770;2023-06-04T10:35:35;28.90;40.10
32614;DHT22;19031;51.400;6.770;2023-06-04T10:40:32;29.20;42.40
32614;DHT22;19031;51.400;6.770;2023-06-04T10:43:08;29.20;40.60
32614;DHT22;19031;51.400;6.770;2023-06-04T10:45:34;29.50;39.40
32614;DHT22;19031;51.400;6.770;2023-06-04T10:48:04;30.00;40.20
32614;DHT22;19031;51.400;6.770;2023-06-04T10:50:31;29.60;38.90
32614;DHT22;19031;51.400;6.770;2023-06-04T10:52:58;30.20;41.20
32614;DHT22;19031;51.400;6.770;2023-06-04T10:55:24;30.20;40.00
32614;DHT22;19031;51.400;6.770;2023-06-04T10:57:58;29.90;38.90
32614;DHT22;19031;51.400;6.770;2023-06-04T11:00:37;29.70;39.50
32614;DHT22;19031;51.400;6.770;2023-06-04T11:03:05;29.30;39.00
32614;DHT22;19031;51.400;6.770;2023-06-04T11:05:39;29.30;39.40
32614;DHT22;19031;51.400;6.770;2023-06-04T11:08:06;29.70;39.00
32614;DHT22;19031;51.400;6.770;2023-06-04T11:10:45;30.10;40.80
32614;DHT22;19031;51.400;6.770;2023-06-04T11:13:11;30.00;37.80
32614;DHT22;19031;51.400;6.770;2023-06-04T11:15:46;30.40;39.00
32614;DHT22;19031;51.400;6.770;2023-06-04T11:18:20;31.00;40.20
32614;DHT22;19031;51.400;6.770;2023-06-04T11:20:48;30.90;39.40
32614;DHT22;19031;51.400;6.770;2023-06-04T11:23:15;31.00;38.80
32614;DHT22;19031;51.400;6.770;2023-06-04T11:25:41;31.30;37.80
32614;DHT22;19031;51.400;6.770;2023-06-04T11:28:17;31.50;36.80
32614;DHT22;19031;51.400;6.770;2023-06-04T11:30:58;31.80;36.70
32614;DHT22;19031;51.400;6.770;2023-06-04T11:33:23;32.10;37.20
32614;DHT22;19031;51.400;6.770;2023-06-04T11:35:49;31.40;37.20
32614;DHT22;19031;51.400;6.770;2023-06-04T11:38:15;30.90;37.90
32614;DHT22;19031;51.400;6.770;2023-06-04T11:40:41;30.80;36.60
32614;DHT22;19031;51.400;6.770;2023-06-04T11:43:10;30.70;36.20
32614;DHT22;19031;51.400;6.770;2023-06-04T11:45:36;30.30;36.80
32614;DHT22;19031;51.400;6.770;2023-06-04T11:48:04;30.50;37.60
32614;DHT22;19031;51.400;6.770;2023-06-04T11:50:31;31.00;38.20
32614;DHT22;19031;51.400;6.770;2023-06-04T11:52:57;30.80;37.30
32614;DHT22;19031;51.400;6.770;2023-06-04T11:55:23;31.00;38.40
32614;DHT22;19031;51.400;6.770;2023-06-04T11:57:50;30.90;36.00
32614;DHT22;19031;51.400;6.770;2023-06-04T12:00:17;30.90;36.20
32614;DHT22;19031;51.400;6.770;2023-06-04T12:02:54;31.00;36.10
32614;DHT22;19031;51.400;6.770;2023-06-04T12:05:29;31.50;38.80
32614;DHT22;19031;51.400;6.770;2023-06-04T12:08:06;31.40;38.40
32614;DHT22;19031;51.400;6.770;2023-06-04T12:10:41;31.30;36.40
32614;DHT22;19031;51.400;6.770;2023-06-04T12:13:08;31.00;36.00
32614;DHT22;19031;51.400;6.770;2023-06-04T12:15:34;31.40;38.30
32614;DHT22;19031;51.400;6.770;2023-06-04T12:18:00;31.50;37.60
32614;DHT22;19031;51.400;6.770;2023-06-04T12:20:37;31.40;35.10
32614;DHT22;19031;51.400;6.770;2023-06-04T12:23:05;32.20;35.90
32614;DHT22;19031;51.400;6.770;2023-06-04T12:25:32;31.70;35.00
32614;DHT22;19031;51.400;6.770;2023-06-04T12:27:58;31.80;36.50
32614;DHT22;19031;51.400;6.770;2023-06-04T12:30:38;31.80;34.80
32614;DHT22;19031;51.400;6.770;2023-06-04T12:33:04;31.10;34.70
32614;DHT22;19031;51.400;6.770;2023-06-04T12:35:29;31.00;36.80
32614;DHT22;19031;51.400;6.770;2023-06-04T12:37:55;31.60;36.00
32614;DHT22;19031;51.400;6.770;2023-06-04T12:40:20;32.00;36.50
32614;DHT22;19031;51.400;6.770;2023-06-04T12:42:51;32.00;37.50
32614;DHT22;19031;51.400;6.770;2023-06-04T12:45:17;31.40;35.10
32614;DHT22;19031;51.400;6.770;2023-06-04T12:47:42;31.40;36.40
32614;DHT22;19031;51.400;6.770;2023-06-04T12:50:08;31.10;36.20
32614;DHT22;19031;51.400;6.770;2023-06-04T12:52:34;31.30;36.70
32614;DHT22;19031;51.400;6.770;2023-06-04T12:55:00;31.60;35.90
32614;DHT22;19031;51.400;6.770;2023-06-04T12:57:25;32.00;37.10
32614;DHT22;19031;51.400;6.770;2023-06-04T12:59:51;31.10;35.50
32614;DHT22;19031;51.400;6.770;2023-06-04T13:02:16;31.20;36.40
32614;DHT22;19031;51.400;6.770;2023-06-04T13:04:42;31.50;37.70
32614;DHT22;19031;51.400;6.770;2023-06-04T13:07:10;31.90;35.80
32614;DHT22;19031;51.400;6.770;2023-06-04T13:09:35;32.40;36.00
32614;DHT22;19031;51.400;6.770;2023-06-04T13:12:01;32.50;34.80
32614;DHT22;19031;51.400;6.770;2023-06-04T13:14:26;32.60;35.40
32614;DHT22;19031;51.400;6.770;2023-06-04T13:16:52;32.30;34.50
32614;DHT22;19031;51.400;6.770;2023-06-04T13:19:18;31.60;34.00
32614;DHT22;19031;51.400;6.770;2023-06-04T13:21:45;31.70;36.00
32614;DHT22;19031;51.400;6.770;2023-06-04T13:24:11;31.60;36.30
32614;DHT22;19031;51.400;6.770;2023-06-04T13:26:37;31.80;34.80
32614;DHT22;19031;51.400;6.770;2023-06-04T13:29:04;32.00;34.60
32614;DHT22;19031;51.400;6.770;2023-06-04T13:31:29;32.10;35.60
32614;DHT22;19031;51.400;6.770;2023-06-04T13:33:55;32.00;36.00
32614;DHT22;19031;51.400;6.770;2023-06-04T13:36:21;31.60;35.50
32614;DHT22;19031;51.400;6.770;2023-06-04T13:38:46;31.20;38.10
32614;DHT22;19031;51.400;6.770;2023-06-04T13:41:12;31.20;36.90
32614;DHT22;19031;51.400;6.770;2023-06-04T13:43:38;30.80;36.50
32614;DHT22;19031;51.400;6.770;2023-06-04T13:46:04;30.90;35.70
32614;DHT22;19031;51.400;6.770;2023-06-04T13:48:30;30.80;36.40
32614;DHT22;19031;51.400;6.770;2023-06-04T13:50:56;31.10;36.20
32614;DHT22;19031;51.400;6.770;2023-06-04T13:53:21;30.50;36.10
32614;DHT22;19031;51.400;6.770;2023-06-04T13:55:47;30.60;37.40
32614;DHT22;19031;51.400;6.770;2023-06-04T13:58:13;31.10;38.00
32614;DHT22;19031;51.400;6.770;2023-06-04T14:00:42;31.40;35.70
32614;DHT22;19031;51.400;6.770;2023-06-04T14:03:08;31.30;36.70
32614;DHT22;19031;51.400;6.770;2023-06-04T14:05:33;31.40;36.20
32614;DHT22;19031;51.400;6.770;2023-06-04T14:07:59;31.50;37.60
32614;DHT22;19031;51.400;6.770;2023-06-04T14:10:24;32.00;36.00
32614;DHT22;19031;51.400;6.770;2023-06-04T14:12:50;31.90;37.40
32614;DHT22;19031;51.400;6.770;2023-06-04T14:15:16;31.80;35.40
32614;DHT22;19031;51.400;6.770;2023-06-04T14:17:42;31.50;37.60
32614;DHT22;19031;51.400;6.770;2023-06-04T14:20:08;31.40;37.20
32614;DHT22;19031;51.400;6.770;2023-06-04T14:22:37;31.40;35.30
32614;DHT22;19031;51.400;6.770;2023-06-04T14:25:07;31.20;35.50
32614;DHT22;19031;51.400;6.770;2023-06-04T14:27:33;30.60;35.90
32614;DHT22;19031;51.400;6.770;2023-06-04T14:30:02;31.10;35.50
32614;DHT22;19031;51.400;6.770;2023-06-04T14:32:28;31.10;35.10
32614;DHT22;19031;51.400;6.770;2023-06-04T14:34:53;30.20;35.40
32614;DHT22;19031;51.400;6.770;2023-06-04T14:37:19;30.40;35.40
32614;DHT22;19031;51.400;6.770;2023-06-04T14:39:46;30.90;35.80
32614;DHT22;19031;51.400;6.770;2023-06-04T14:42:12;31.10;35.40
32614;DHT22;19031;51.400;6.770;2023-06-04T14:44:38;30.80;35.90
32614;DHT22;19031;51.400;6.770;2023-06-04T14:47:04;30.70;34.30
32614;DHT22;19031;51.400;6.770;2023-06-04T14:49:30;30.90;36.80
32614;DHT22;19031;51.400;6.770;2023-06-04T14:51:56;30.80;35.30
32614;DHT22;19031;51.400;6.770;2023-06-04T14:54:21;30.60;33.20
32614;DHT22;19031;51.400;6.770;2023-06-04T14:56:47;30.60;35.80
32614;DHT22;19031;51.400;6.770;2023-06-04T14:59:12;30.50;34.80
32614;DHT22;19031;51.400;6.770;2023-06-04T15:01:38;31.20;37.30
32614;DHT22;19031;51.400;6.770;2023-06-04T15:04:06;30.90;37.00
32614;DHT22;19031;51.400;6.770;2023-06-04T15:06:32;31.10;34.00
32614;DHT22;19031;51.400;6.770;2023-06-04T15:08:57;31.00;35.50
32614;DHT22;19031;51.400;6.770;2023-06-04T15:11:24;30.80;35.00
32614;DHT22;19031;51.400;6.770;2023-06-04T15:13:50;30.50;36.60
32614;DHT22;19031;51.400;6.770;2023-06-04T15:16:16;30.50;36.40
32614;DHT22;19031;51.400;6.770;2023-06-04T15:18:41;30.30;36.00
32614;DHT22;19031;51.400;6.770;2023-06-04T15:21:07;30.50;37.50
32614;DHT22;19031;51.400;6.770;2023-06-04T15:23:33;30.90;36.30
32614;DHT22;19031;51.400;6.770;2023-06-04T15:25:59;30.50;36.00
32614;DHT22;19031;51.400;6.770;2023-06-04T15:28:24;30.50;37.90
32614;DHT22;19031;51.400;6.770;2023-06-04T15:30:50;30.50;38.10
32614;DHT22;19031;51.400;6.770;2023-06-04T15:33:16;30.60;36.60
32614;DHT22;19031;51.400;6.770;2023-06-04T15:35:42;30.50;36.80